createdAt,value
2022-10-16T00:02:26.220Z,37.90
2022-10-16T00:04:53.003Z,46.88
2022-10-16T00:07:19.616Z,43.70
2022-10-16T00:09:47.210Z,39.30
2022-10-16T00:12:13.832Z,48.15
2022-10-16T00:14:42.804Z,48.28
2022-10-16T00:17:09.575Z,37.38
2022-10-16T00:19:36.382Z,44.58
2022-10-16T00:22:02.998Z,42.53
2022-10-16T00:24:32.270Z,38.00
2022-10-16T00:26:59.220Z,41.90
2022-10-16T00:29:25.889Z,40.78
2022-10-16T00:31:52.515Z,33.47
2022-10-16T00:34:19.312Z,48.47
2022-10-16T00:36:45.988Z,42.35
2022-10-16T00:39:13.125Z,39.75
2022-10-16T00:41:39.724Z,44.92
2022-10-16T00:44:49.667Z,41.70
2022-10-16T00:47:50.203Z,33.78
2022-10-16T00:50:23.153Z,42.70
2022-10-16T00:52:52.411Z,47.95
2022-10-16T00:55:19.755Z,52.20
2022-10-16T00:57:47.034Z,49.13
2022-10-16T01:00:18.959Z,51.30
2022-10-16T01:02:45.840Z,51.88
2022-10-16T01:05:12.540Z,47.30
2022-10-16T01:08:03.040Z,47.63
2022-10-16T01:10:56.230Z,40.75
2022-10-16T01:13:28.155Z,44.85
2022-10-16T01:16:14.371Z,40.08
2022-10-16T01:18:47.604Z,50.03
2022-10-16T01:21:17.417Z,54.90
2022-10-16T01:23:56.577Z,49.20
2022-10-16T01:26:54.504Z,46.30
2022-10-16T01:30:00.305Z,42.58
2022-10-16T01:32:34.282Z,39.55
2022-10-16T01:35:24.733Z,56.30
2022-10-16T01:37:55.072Z,45.97
2022-10-16T01:40:25.379Z,40.58
2022-10-16T01:43:00.398Z,54.45
2022-10-16T01:45:29.507Z,56.38
2022-10-16T01:47:56.850Z,49.38
2022-10-16T01:50:28.201Z,54.60
2022-10-16T01:52:57.645Z,40.67
2022-10-16T01:55:30.680Z,56.22
2022-10-16T01:57:58.892Z,53.00
2022-10-16T02:00:27.547Z,54.50
2022-10-16T02:02:56.839Z,47.15
2022-10-16T02:05:31.591Z,48.20
2022-10-16T02:08:00.429Z,47.38
2022-10-16T02:10:32.556Z,46.50
2022-10-16T02:13:06.703Z,53.15
2022-10-16T02:15:33.394Z,45.10
2022-10-16T02:18:00.194Z,50.30
2022-10-16T02:20:33.649Z,56.30
2022-10-16T02:23:02.197Z,50.35
2022-10-16T02:25:38.442Z,50.38
2022-10-16T02:28:10.678Z,45.63
2022-10-16T02:30:49.448Z,64.43
2022-10-16T02:35:47.593Z,56.97
2022-10-16T02:38:16.222Z,53.65
2022-10-16T02:40:43.758Z,43.22
2022-10-16T02:43:11.140Z,54.28
2022-10-16T02:45:37.945Z,52.70
2022-10-16T02:48:04.734Z,58.67
2022-10-16T02:50:31.419Z,51.35
2022-10-16T02:52:58.254Z,57.15
2022-10-16T02:55:24.924Z,50.67
2022-10-16T02:57:51.788Z,57.88
2022-10-16T03:00:19.117Z,52.70
2022-10-16T03:02:48.925Z,46.05
2022-10-16T03:05:16.014Z,55.60
2022-10-16T03:07:42.883Z,49.17
2022-10-16T03:10:10.388Z,46.40
2022-10-16T03:12:36.996Z,58.85
2022-10-16T03:15:04.412Z,51.17
2022-10-16T03:17:31.101Z,51.17
2022-10-16T03:19:57.857Z,56.20
2022-10-16T03:22:24.488Z,53.35
2022-10-16T03:24:51.404Z,46.10
2022-10-16T03:27:18.155Z,48.38
2022-10-16T03:29:44.897Z,53.35
2022-10-16T03:32:11.463Z,60.50
2022-10-16T03:34:41.503Z,57.72
2022-10-16T03:37:08.089Z,49.92
2022-10-16T03:39:35.108Z,49.83
2022-10-16T03:42:01.717Z,42.40
2022-10-16T03:44:28.484Z,57.00
2022-10-16T03:46:55.209Z,43.05
2022-10-16T03:49:22.033Z,63.70
2022-10-16T03:51:48.663Z,44.78
2022-10-16T03:54:18.150Z,48.80
2022-10-16T03:56:44.949Z,58.28
2022-10-16T03:59:11.645Z,59.15
2022-10-16T04:01:38.255Z,54.90
2022-10-16T04:04:05.122Z,59.15
2022-10-16T04:06:31.823Z,54.17
2022-10-16T04:08:58.403Z,56.00
2022-10-16T04:11:25.012Z,50.08
2022-10-16T04:13:51.879Z,54.17
2022-10-16T04:16:18.695Z,44.03
2022-10-16T04:18:45.563Z,55.15
2022-10-16T04:21:12.755Z,43.40
2022-10-16T04:23:39.384Z,51.65
2022-10-16T04:26:06.508Z,54.10
2022-10-16T04:28:33.214Z,52.08
2022-10-16T04:31:00.118Z,55.38
2022-10-16T04:33:30.141Z,56.50
2022-10-16T04:36:04.571Z,42.47
2022-10-16T04:38:31.986Z,48.63
2022-10-16T04:40:59.078Z,40.42
2022-10-16T04:43:26.772Z,53.85
2022-10-16T04:45:55.987Z,42.20
2022-10-16T04:48:23.001Z,49.78
2022-10-16T04:50:53.056Z,50.95
2022-10-16T04:53:25.058Z,52.80
2022-10-16T04:55:51.951Z,49.05
2022-10-16T04:58:18.615Z,61.85
2022-10-16T05:00:47.060Z,51.50
2022-10-16T05:03:14.781Z,57.80
2022-10-16T05:05:46.265Z,53.95
2022-10-16T05:08:14.478Z,52.50
2022-10-16T05:10:42.859Z,56.63
2022-10-16T05:13:16.781Z,61.22
2022-10-16T05:15:51.450Z,62.85
2022-10-16T05:18:18.426Z,53.40
2022-10-16T05:20:45.123Z,53.60
2022-10-16T05:25:43.841Z,58.53
2022-10-16T05:28:13.443Z,45.53
2022-10-16T05:30:42.454Z,57.30
2022-10-16T05:33:09.199Z,57.38
2022-10-16T05:35:39.047Z,51.72
2022-10-16T05:38:05.661Z,47.33
2022-10-16T05:40:32.365Z,56.20
2022-10-16T05:42:59.339Z,51.40
2022-10-16T05:45:26.560Z,57.78
2022-10-16T05:47:53.500Z,51.00
2022-10-16T05:50:20.234Z,69.47
2022-10-16T05:52:46.873Z,54.13
2022-10-16T05:55:13.628Z,61.75
2022-10-16T05:57:40.367Z,53.30
2022-10-16T06:00:07.520Z,61.97
2022-10-16T06:02:34.425Z,49.22
2022-10-16T06:05:01.207Z,58.20
2022-10-16T06:07:28.009Z,58.58
2022-10-16T06:09:54.868Z,54.88
2022-10-16T06:12:21.670Z,52.85
2022-10-16T06:14:48.483Z,62.33
2022-10-16T06:17:15.547Z,59.13
2022-10-16T06:19:42.124Z,47.70
2022-10-16T06:22:08.893Z,43.90
2022-10-16T06:24:35.720Z,57.30
2022-10-16T06:27:02.327Z,59.55
2022-10-16T06:29:28.959Z,60.55
2022-10-16T06:31:55.742Z,46.88
2022-10-16T06:34:22.439Z,51.13
2022-10-16T06:36:49.118Z,59.38
2022-10-16T06:39:15.996Z,56.50
2022-10-16T06:41:42.597Z,57.42
2022-10-16T06:44:09.274Z,60.40
2022-10-16T06:46:35.978Z,59.13
2022-10-16T06:49:03.016Z,62.88
2022-10-16T06:51:29.728Z,65.40
2022-10-16T06:54:04.005Z,50.95
2022-10-16T06:56:32.909Z,53.63
2022-10-16T06:59:00.510Z,56.65
2022-10-16T07:01:27.519Z,54.83
2022-10-16T07:03:54.342Z,44.00
2022-10-16T07:06:23.639Z,52.80
2022-10-16T07:08:50.947Z,62.45
2022-10-16T07:11:20.826Z,45.17
2022-10-16T07:13:52.675Z,48.25
2022-10-16T07:16:24.646Z,51.17
2022-10-16T07:18:55.278Z,55.50
2022-10-16T07:21:23.685Z,60.33
2022-10-16T07:23:56.241Z,62.60
2022-10-16T07:26:24.386Z,63.00
2022-10-16T07:28:51.159Z,63.97
2022-10-16T07:31:19.899Z,59.83
2022-10-16T07:36:16.596Z,58.45
2022-10-16T07:38:48.313Z,68.72
2022-10-16T07:41:17.591Z,58.22
2022-10-16T07:43:52.848Z,61.67
2022-10-16T07:46:20.785Z,73.47
2022-10-16T07:48:49.084Z,42.63
2022-10-16T07:51:18.650Z,48.63
2022-10-16T07:53:45.406Z,62.15
2022-10-16T07:56:12.901Z,69.90
2022-10-16T07:58:39.815Z,50.10
2022-10-16T08:01:12.492Z,59.88
2022-10-16T08:03:39.175Z,71.65
2022-10-16T08:06:06.526Z,71.63
2022-10-16T08:08:33.390Z,61.53
2022-10-16T08:11:00.096Z,67.40
2022-10-16T08:13:28.119Z,60.80
2022-10-16T08:15:55.670Z,72.00
2022-10-16T08:18:23.986Z,56.25
2022-10-16T08:20:59.933Z,49.85
2022-10-16T08:23:27.806Z,59.05
2022-10-16T08:25:55.163Z,54.95
2022-10-16T08:28:22.219Z,61.55
2022-10-16T08:30:49.219Z,55.08
2022-10-16T08:33:15.761Z,57.25
2022-10-16T08:35:42.470Z,56.78
2022-10-16T08:38:09.088Z,69.93
2022-10-16T08:40:38.291Z,61.45
2022-10-16T08:43:17.599Z,62.35
2022-10-16T08:46:20.614Z,62.83
2022-10-16T08:48:52.572Z,62.35
2022-10-16T08:51:33.526Z,58.00
2022-10-16T08:54:06.422Z,60.00
2022-10-16T08:56:34.718Z,58.92
2022-10-16T08:59:03.008Z,66.20
2022-10-16T09:01:42.500Z,61.15
2022-10-16T09:04:41.268Z,59.95
2022-10-16T09:07:39.988Z,59.85
2022-10-16T09:10:35.980Z,56.38
2022-10-16T09:13:11.422Z,61.15
2022-10-16T09:15:47.906Z,60.67
2022-10-16T09:18:29.959Z,61.72
2022-10-16T09:21:09.800Z,71.82
2022-10-16T09:23:38.386Z,61.50
2022-10-16T09:26:10.662Z,61.42
2022-10-16T09:28:37.298Z,61.33
2022-10-16T09:31:03.842Z,55.30
2022-10-16T09:33:36.293Z,61.13
2022-10-16T09:36:05.590Z,63.75
2022-10-16T09:38:37.128Z,60.17
2022-10-16T09:41:20.875Z,61.13
2022-10-16T09:44:00.432Z,57.45
2022-10-16T09:46:29.166Z,55.63
2022-10-16T09:49:00.923Z,54.58
2022-10-16T09:51:33.784Z,52.65
2022-10-16T09:54:07.374Z,51.28
2022-10-16T09:56:42.746Z,49.30
2022-10-16T09:59:18.346Z,40.33
2022-10-16T10:01:51.712Z,42.88
2022-10-16T10:04:20.395Z,39.30
2022-10-16T10:06:56.364Z,40.28
2022-10-16T10:09:32.376Z,35.28
2022-10-16T10:12:00.799Z,38.47
2022-10-16T10:14:39.441Z,41.40
2022-10-16T10:17:05.918Z,46.28
2022-10-16T10:19:41.274Z,40.38
2022-10-16T10:22:39.923Z,38.60
2022-10-16T10:25:19.997Z,36.65
2022-10-16T10:27:52.419Z,30.70
2022-10-16T10:30:40.424Z,37.53
2022-10-16T10:34:08.794Z,36.75
2022-10-16T10:36:40.965Z,30.45
2022-10-16T10:39:10.425Z,31.58
2022-10-16T10:41:45.977Z,29.75
2022-10-16T10:44:36.295Z,35.70
2022-10-16T10:47:11.771Z,32.22
2022-10-16T10:49:42.445Z,33.15
2022-10-16T10:52:25.852Z,39.78
2022-10-16T10:55:21.324Z,38.85
2022-10-16T10:58:03.779Z,36.65
2022-10-16T11:00:42.150Z,43.63
2022-10-16T11:03:47.548Z,34.40
2022-10-16T11:06:25.299Z,31.95
2022-10-16T11:08:59.070Z,31.75
2022-10-16T11:11:44.724Z,35.10
2022-10-16T11:14:32.616Z,35.30
2022-10-16T11:17:05.251Z,41.38
2022-10-16T11:19:53.197Z,37.67
2022-10-16T11:25:06.048Z,34.28
2022-10-16T11:27:44.603Z,34.28
2022-10-16T11:30:21.108Z,30.55
2022-10-16T11:32:55.697Z,36.22
2022-10-16T11:35:33.580Z,34.28
2022-10-16T11:38:04.891Z,40.38
2022-10-16T11:40:41.970Z,35.85
2022-10-16T11:43:18.584Z,31.55
2022-10-16T11:45:52.926Z,41.28
2022-10-16T11:48:29.035Z,41.40
2022-10-16T11:51:03.851Z,34.80
2022-10-16T11:53:45.672Z,36.55
2022-10-16T11:56:18.702Z,41.97
2022-10-16T11:58:47.899Z,45.63
2022-10-16T12:01:28.315Z,39.90
2022-10-16T12:04:06.270Z,36.08
2022-10-16T12:06:33.072Z,36.95
2022-10-16T12:09:03.944Z,39.40
2022-10-16T12:11:30.534Z,38.55
2022-10-16T12:14:12.476Z,38.75
2022-10-16T12:16:40.212Z,36.00
2022-10-16T12:19:15.928Z,48.45
2022-10-16T12:21:43.802Z,40.78
2022-10-16T12:24:33.616Z,41.72
2022-10-16T12:27:01.453Z,52.17
2022-10-16T12:29:46.006Z,46.97
2022-10-16T12:32:46.619Z,44.90
2022-10-16T12:35:27.776Z,44.35
2022-10-16T12:37:55.470Z,44.55
2022-10-16T12:40:32.025Z,41.90
2022-10-16T12:42:59.246Z,46.88
2022-10-16T12:45:34.408Z,43.88
2022-10-16T12:48:03.607Z,35.28
2022-10-16T12:50:39.407Z,42.83
2022-10-16T12:53:29.071Z,37.95
2022-10-16T12:55:58.407Z,42.47
2022-10-16T12:59:02.252Z,48.17
2022-10-16T13:01:43.055Z,39.33
2022-10-16T13:04:47.283Z,42.55
2022-10-16T13:07:45.196Z,37.17
2022-10-16T13:13:26.587Z,47.33
2022-10-16T13:16:17.704Z,45.05
2022-10-16T13:19:10.486Z,40.03
2022-10-16T13:21:58.611Z,43.08
2022-10-16T13:27:24.263Z,44.30
2022-10-16T13:30:01.402Z,43.50
2022-10-16T13:32:29.699Z,41.08
2022-10-16T13:34:56.654Z,43.17
2022-10-16T13:37:25.337Z,34.38
2022-10-16T13:39:52.229Z,40.60
2022-10-16T13:42:28.320Z,46.80
2022-10-16T13:44:57.204Z,40.17
2022-10-16T13:47:26.408Z,42.83
2022-10-16T13:50:32.182Z,38.78
2022-10-16T13:53:24.958Z,48.05
2022-10-16T13:56:05.110Z,41.45
2022-10-16T13:58:32.067Z,44.15
2022-10-16T14:01:05.843Z,43.22
2022-10-16T14:03:34.851Z,34.65
2022-10-16T14:06:04.383Z,33.85
2022-10-16T14:08:31.837Z,37.83
2022-10-16T14:11:01.024Z,37.30
2022-10-16T14:13:35.196Z,42.30
2022-10-16T14:16:07.683Z,41.05
2022-10-16T14:18:35.876Z,37.60
2022-10-16T14:23:38.449Z,38.45
2022-10-16T14:26:13.218Z,29.63
2022-10-16T14:28:41.784Z,37.17
2022-10-16T14:31:20.613Z,36.45
2022-10-16T14:33:47.206Z,37.78
2022-10-16T14:36:18.440Z,29.83
2022-10-16T14:39:04.693Z,40.83
2022-10-16T14:41:33.496Z,35.90
2022-10-16T14:44:06.624Z,39.58
2022-10-16T14:46:37.290Z,41.30
2022-10-16T14:49:09.878Z,35.42
2022-10-16T14:51:37.593Z,38.15
2022-10-16T14:54:04.726Z,40.55
2022-10-16T14:56:44.780Z,45.05
2022-10-16T14:59:17.759Z,41.33
2022-10-16T15:01:45.767Z,37.80
2022-10-16T15:04:13.831Z,51.78
2022-10-16T15:06:40.487Z,40.92
2022-10-16T15:09:07.098Z,46.72
2022-10-16T15:11:33.838Z,48.15
2022-10-16T15:14:00.585Z,41.30
2022-10-16T15:16:27.267Z,35.20
2022-10-16T15:18:54.133Z,40.70
2022-10-16T15:21:27.702Z,45.08
2022-10-16T15:23:55.763Z,33.47
2022-10-16T15:26:22.328Z,52.15
2022-10-16T15:28:49.089Z,28.23
2022-10-16T15:31:15.859Z,44.10
2022-10-16T15:33:42.412Z,39.03
2022-10-16T15:36:09.153Z,31.77
2022-10-16T15:38:35.850Z,38.63
2022-10-16T15:41:02.411Z,36.05
2022-10-16T15:43:30.010Z,39.15
2022-10-16T15:46:01.653Z,38.13
2022-10-16T15:48:29.409Z,45.00
2022-10-16T15:50:56.080Z,43.63
2022-10-16T15:53:22.781Z,36.13
2022-10-16T15:55:50.966Z,36.15
2022-10-16T15:58:17.891Z,36.63
2022-10-16T16:00:44.520Z,40.08
2022-10-16T16:03:11.453Z,37.63
2022-10-16T16:05:46.285Z,34.30
2022-10-16T16:08:13.204Z,37.58
2022-10-16T16:10:39.823Z,37.80
2022-10-16T16:13:06.335Z,37.15
2022-10-16T16:15:32.909Z,44.72
2022-10-16T16:17:59.627Z,39.08
2022-10-16T16:20:26.222Z,41.28
2022-10-16T16:22:52.810Z,34.92
2022-10-16T16:25:20.008Z,36.75
2022-10-16T16:27:46.553Z,38.75
2022-10-16T16:30:18.384Z,47.20
2022-10-16T16:32:46.670Z,44.25
2022-10-16T16:35:13.168Z,41.35
2022-10-16T16:37:39.653Z,30.92
2022-10-16T16:40:06.882Z,35.85
2022-10-16T16:42:33.473Z,32.88
2022-10-16T16:45:00.088Z,38.72
2022-10-16T16:47:27.102Z,36.90
2022-10-16T16:49:53.901Z,39.58
2022-10-16T16:52:20.572Z,48.75
2022-10-16T16:54:53.005Z,39.03
2022-10-16T16:57:21.178Z,37.78
2022-10-16T16:59:48.167Z,35.08
2022-10-16T17:02:16.311Z,41.25
2022-10-16T17:04:42.887Z,44.60
2022-10-16T17:07:09.615Z,48.20
2022-10-16T17:09:36.301Z,37.83
2022-10-16T17:12:02.848Z,42.90
2022-10-16T17:14:29.433Z,45.38
2022-10-16T17:16:56.344Z,34.97
2022-10-16T17:19:22.905Z,36.25
2022-10-16T17:21:50.825Z,46.00
2022-10-16T17:24:18.687Z,38.08
2022-10-16T17:26:49.033Z,43.65
2022-10-16T17:29:18.933Z,49.20
2022-10-16T17:31:46.594Z,36.72
2022-10-16T17:34:13.419Z,37.65
2022-10-16T17:36:44.479Z,43.28
2022-10-16T17:39:13.288Z,47.65
2022-10-16T17:41:40.214Z,34.25
2022-10-16T17:44:07.916Z,41.28
2022-10-16T17:46:38.325Z,41.90
2022-10-16T17:49:07.947Z,40.70
2022-10-16T17:51:34.628Z,43.60
2022-10-16T17:54:02.399Z,41.08
2022-10-16T17:56:30.469Z,37.13
2022-10-16T17:59:00.044Z,46.05
2022-10-16T18:01:35.583Z,46.03
2022-10-16T18:04:07.508Z,46.25
2022-10-16T18:06:34.662Z,37.30
2022-10-16T18:09:03.057Z,41.85
2022-10-16T18:11:29.879Z,47.35
2022-10-16T18:13:58.351Z,46.45
2022-10-16T18:16:26.747Z,43.53
2022-10-16T18:18:54.624Z,44.88
2022-10-16T18:21:21.270Z,44.28
2022-10-16T18:23:51.062Z,48.35
2022-10-16T18:26:18.739Z,49.03
2022-10-16T18:28:45.519Z,44.42
2022-10-16T18:31:14.517Z,43.80
2022-10-16T18:33:47.994Z,43.72
2022-10-16T18:36:15.472Z,48.35
2022-10-16T18:38:42.000Z,50.28
2022-10-16T18:41:08.868Z,44.17
2022-10-16T18:43:37.008Z,49.28
2022-10-16T18:46:10.251Z,48.58
2022-10-16T18:48:37.910Z,50.90
2022-10-16T18:51:22.790Z,50.88
2022-10-16T18:53:52.009Z,50.33
2022-10-16T18:56:21.012Z,47.97
2022-10-16T18:58:49.134Z,47.15
2022-10-16T19:01:21.041Z,55.00
2022-10-16T19:03:48.900Z,49.03
2022-10-16T19:06:16.943Z,44.50
2022-10-16T19:08:44.298Z,50.35
2022-10-16T19:11:21.979Z,46.38
2022-10-16T19:13:49.235Z,45.88
2022-10-16T19:16:21.252Z,50.85
2022-10-16T19:18:53.360Z,46.20
2022-10-16T19:21:21.011Z,50.78
2022-10-16T19:23:59.032Z,47.28
2022-10-16T19:26:27.077Z,44.78
2022-10-16T19:28:58.417Z,49.40
2022-10-16T19:31:27.094Z,47.60
2022-10-16T19:33:56.124Z,44.75
2022-10-16T19:36:25.326Z,56.13
2022-10-16T19:38:57.717Z,60.30
2022-10-16T19:41:25.344Z,48.60
2022-10-16T19:43:52.723Z,45.55
2022-10-16T19:46:22.028Z,49.85
2022-10-16T19:48:49.187Z,54.30
2022-10-16T19:51:18.819Z,52.20
2022-10-16T19:53:46.855Z,51.22
2022-10-16T19:56:18.075Z,55.88
2022-10-16T19:58:46.358Z,59.08
2022-10-16T20:01:15.326Z,55.42
2022-10-16T20:03:46.806Z,57.70
2022-10-16T20:06:14.808Z,64.70
2022-10-16T20:08:44.342Z,62.50
2022-10-16T20:11:32.794Z,52.20
2022-10-16T20:13:59.832Z,62.35
2022-10-16T20:16:28.131Z,59.88
2022-10-16T20:18:55.737Z,50.78
2022-10-16T20:21:31.357Z,66.50
2022-10-16T20:24:00.843Z,62.72
2022-10-16T20:26:27.676Z,52.33
2022-10-16T20:28:54.904Z,56.20
2022-10-16T20:31:25.135Z,57.03
2022-10-16T20:33:53.848Z,57.05
2022-10-16T20:38:47.749Z,54.17
2022-10-16T20:41:15.797Z,58.05
2022-10-16T20:43:45.155Z,52.25
2022-10-16T20:46:14.379Z,60.72
2022-10-16T20:48:47.284Z,58.33
2022-10-16T20:51:15.896Z,51.85
2022-10-16T20:53:44.167Z,53.28
2022-10-16T20:56:12.570Z,51.70
2022-10-16T20:58:40.631Z,51.05
2022-10-16T21:01:09.328Z,56.25
2022-10-16T21:06:10.327Z,56.60
2022-10-16T21:08:39.282Z,58.80
2022-10-16T21:11:27.457Z,51.85
2022-10-16T21:13:56.191Z,51.20
2022-10-16T21:16:23.565Z,62.53
2022-10-16T21:18:50.442Z,52.67
2022-10-16T21:21:38.391Z,53.50
2022-10-16T21:24:06.925Z,56.72
2022-10-16T21:26:33.704Z,52.30
2022-10-16T21:29:06.829Z,48.50
2022-10-16T21:31:34.910Z,55.58
2022-10-16T21:34:01.947Z,57.60
2022-10-16T21:36:31.679Z,48.15
2022-10-16T21:39:02.686Z,49.47
2022-10-16T21:41:29.763Z,54.45
2022-10-16T21:43:57.590Z,49.67
2022-10-16T21:46:28.050Z,51.10
2022-10-16T21:49:00.479Z,50.75
2022-10-16T21:51:34.039Z,55.97
2022-10-16T21:54:01.824Z,56.97
2022-10-16T21:56:29.214Z,55.00
2022-10-16T21:58:56.525Z,54.58
2022-10-16T22:01:25.873Z,57.63
2022-10-16T22:03:52.710Z,60.50
2022-10-16T22:08:50.234Z,51.33
2022-10-16T22:11:24.988Z,49.17
2022-10-16T22:13:56.695Z,49.53
2022-10-16T22:16:26.917Z,53.65
2022-10-16T22:18:55.761Z,58.00
2022-10-16T22:21:23.005Z,49.03
2022-10-16T22:23:50.326Z,63.17
2022-10-16T22:26:17.218Z,59.97
2022-10-16T22:28:44.215Z,60.90
2022-10-16T22:31:13.877Z,60.70
2022-10-16T22:33:41.663Z,63.67
2022-10-16T22:36:11.299Z,63.33
2022-10-16T22:38:38.680Z,56.10
2022-10-16T22:41:12.191Z,60.17
2022-10-16T22:43:43.082Z,56.63
2022-10-16T22:46:21.211Z,53.22
2022-10-16T22:48:48.449Z,62.47
2022-10-16T22:51:17.366Z,58.22
2022-10-16T22:53:48.014Z,51.42
2022-10-16T22:56:17.904Z,54.28
2022-10-16T22:58:44.973Z,57.40
2022-10-16T23:01:16.945Z,59.88
2022-10-16T23:03:43.783Z,60.42
2022-10-16T23:06:10.764Z,59.45
2022-10-16T23:08:37.796Z,56.53
2022-10-16T23:11:09.530Z,54.58
2022-10-16T23:13:38.440Z,57.15
2022-10-16T23:16:06.617Z,57.08
2022-10-16T23:18:34.680Z,57.17
2022-10-16T23:21:06.531Z,71.13
2022-10-16T23:23:37.684Z,54.65
2022-10-16T23:26:19.051Z,51.13
2022-10-16T23:28:48.627Z,57.67
2022-10-16T23:31:19.017Z,60.30
2022-10-16T23:33:46.071Z,69.95
2022-10-16T23:36:15.364Z,57.85
2022-10-16T23:38:43.463Z,63.40
2022-10-16T23:41:11.264Z,62.00
2022-10-16T23:43:41.212Z,59.72
2022-10-16T23:46:10.353Z,66.95
2022-10-16T23:48:40.902Z,62.72
2022-10-16T23:51:09.011Z,60.95
2022-10-16T23:53:35.874Z,74.50
2022-10-16T23:56:02.482Z,56.53
2022-10-16T23:58:30.303Z,61.95
